Terminal Aerodrome Forecast
Issued by NWS

Home | Current Version | Previous Version | Text Only | Print | Product List | Glossary On
Versions: 1 2 3 4 5 6 7 8 9 10 11 12 13 14 15 16 17 18 19 20
000
FTUS42 KTBW 182300 RRA
TAFLAL
TAF
KLAL 182341Z 1900/1924 18008KT P6SM SCT050 BKN130
     FM190500 18010KT P6SM VCSH SCT020 BKN050
      TEMPO 1909/1913 BKN020
     FM191300 24012KT P6SM VCSH BKN030
     FM191600 27014G22KT P6SM BKN040
      AMD NOT SKED 1903/1912=

USA.gov is the U.S. government's official web portal to all federal, state and local government web resources and services.